Time;durP1;ratioP1;P1;durP2;ratioP2;P2;SDS_P1;SDS_P2;PMS_P1;PMS_P2;Temp;Humidity;BMP_temperature;BMP_pressure;BME280_temperature;BME280_humidity;BME280_pressure;Samples;Min_cycle;Max_cycle;Signal;HPM_P1;HPM_P2
2021/12/24 00:02:20;;;;;;;91.80;42.43;;;;;;;-2.87;100.00;-23733.63;5092501;28;20367;-76
2021/12/24 00:04:45;;;;;;;92.93;44.43;;;;;;;-3.06;100.00;-23728.31;5092264;28;20551;-77
2021/12/24 00:07:11;;;;;;;107.70;51.90;;;;;;;-3.37;100.00;-23719.38;5076515;28;20627;-70
2021/12/24 00:09:38;;;;;;;89.67;43.53;;;;;;;-3.32;100.00;-23720.81;5091905;28;20189;-77
2021/12/24 00:12:11;;;;;;;88.97;43.90;;;;;;;-3.27;100.00;-23722.25;5073943;28;20181;-77
2021/12/24 00:14:41;;;;;;;92.40;45.20;;;;;;;-3.23;100.00;-23723.41;5092894;28;20683;-72
2021/12/24 00:17:07;;;;;;;101.07;47.20;;;;;;;-3.07;100.00;-23727.88;5074306;28;20681;-74
2021/12/24 00:20:05;;;;;;;91.63;42.87;;;;;;;-3.33;100.00;-23720.53;5073951;28;20174;-74
2021/12/24 00:36:00;;;;;;;105.13;44.63;;;;;;;-2.97;100.00;-23730.75;4711485;28;21371;-73
2021/12/24 00:38:26;;;;;;;94.17;44.87;;;;;;;-2.87;100.00;-23733.75;4882589;28;20185;-72
2021/12/24 00:40:51;;;;;;;94.73;45.20;;;;;;;-3.44;100.00;-23717.38;5091275;28;20264;-73
2021/12/24 00:43:17;;;;;;;97.60;44.87;;;;;;;-3.39;100.00;-23718.94;5091800;28;20632;-76
2021/12/24 00:45:44;;;;;;;103.30;45.30;;;;;;;-3.79;100.00;-23707.59;5092179;28;20239;-73
2021/12/24 00:48:14;;;;;;;100.07;45.17;;;;;;;-3.38;100.00;-23719.25;5073820;28;20210;-77
2021/12/24 00:56:08;;;;;;;97.93;44.37;;;;;;;-3.75;100.00;-23708.59;5071289;28;20169;-71
2021/12/24 00:58:35;;;;;;;97.93;44.53;;;;;;;-3.42;100.00;-23717.94;5079698;28;20192;-72
2021/12/24 01:01:00;;;;;;;105.57;48.63;;;;;;;-3.54;100.00;-23714.50;5073497;28;20625;-73
2021/12/24 01:03:26;;;;;;;95.43;44.87;;;;;;;-3.66;100.00;-23711.31;5073399;28;20189;-74
2021/12/24 01:05:52;;;;;;;101.43;46.87;;;;;;;-3.35;100.00;-23719.97;5090924;28;20687;-75
2021/12/24 01:08:18;;;;;;;94.77;45.53;;;;;;;-3.49;100.00;-23715.94;5091546;28;20193;-74
2021/12/24 01:10:51;;;;;;;101.93;48.87;;;;;;;-3.19;100.00;-23724.56;5091005;28;20174;-78
2021/12/24 01:13:16;;;;;;;95.10;46.27;;;;;;;-3.44;100.00;-23717.50;5072628;28;20201;-74
2021/12/24 01:16:07;;;;;;;97.83;46.33;;;;;;;-3.83;100.00;-23706.44;5091401;28;20323;-76
2021/12/24 01:21:42;;;;;;;102.80;46.23;;;;;;;-3.33;100.00;-23720.69;5091197;28;20173;-77
2021/12/24 01:24:10;;;;;;;101.07;46.27;;;;;;;-3.55;100.00;-23714.34;5090757;28;20189;-76
2021/12/24 01:26:53;;;;;;;98.27;44.57;;;;;;;-2.94;100.00;-23731.59;5091316;28;20198;-74
2021/12/24 01:42:46;;;;;;;97.03;46.90;;;;;;;-3.14;100.00;-23726.13;5091359;28;20188;-72
2021/12/24 01:45:23;;;;;;;100.43;46.80;;;;;;;-3.20;100.00;-23724.41;5073084;28;20181;-72
2021/12/24 01:47:50;;;;;;;97.10;46.93;;;;;;;-3.61;100.00;-23712.63;5091401;28;20185;-74
2021/12/24 01:50:17;;;;;;;84.93;41.10;;;;;;;-3.66;100.00;-23711.31;5091382;28;20213;-77
2021/12/24 01:52:42;;;;;;;90.67;44.30;;;;;;;-3.34;100.00;-23720.25;5091395;28;20189;-75
2021/12/24 01:55:09;;;;;;;89.67;43.17;;;;;;;-3.60;100.00;-23713.06;5091277;28;20170;-78
2021/12/24 01:57:40;;;;;;;98.23;45.63;;;;;;;-3.21;100.00;-23723.97;5091583;28;20274;-73
2021/12/24 02:00:09;;;;;;;112.03;52.40;;;;;;;-3.04;100.00;-23728.72;5090771;28;20157;-71
2021/12/24 02:02:34;;;;;;;112.37;53.00;;;;;;;-3.57;100.00;-23713.91;5094509;28;20170;-73
2021/12/24 02:05:00;;;;;;;130.27;62.93;;;;;;;-3.18;100.00;-23725.00;5094755;28;20241;-77
2021/12/24 02:07:25;;;;;;;127.30;58.83;;;;;;;-3.77;100.00;-23708.00;5094864;28;20189;-73
2021/12/24 02:09:54;;;;;;;127.93;57.43;;;;;;;-3.83;100.00;-23706.44;5094646;28;20177;-78
2021/12/24 02:12:19;;;;;;;117.00;57.87;;;;;;;-3.92;100.00;-23703.84;5094710;28;20235;-72
2021/12/24 02:14:49;;;;;;;116.43;56.93;;;;;;;-3.89;100.00;-23704.72;5093970;28;20197;-73
2021/12/24 02:17:50;;;;;;;114.93;55.17;;;;;;;-3.99;100.00;-23701.69;5076312;28;20188;-73
2021/12/24 02:28:38;;;;;;;118.20;55.60;;;;;;;-3.75;100.00;-23708.75;5094223;28;20238;-75
2021/12/24 02:31:13;;;;;;;105.20;52.20;;;;;;;-3.15;100.00;-23725.84;5094451;28;20677;-73
2021/12/24 02:33:39;;;;;;;124.53;58.07;;;;;;;-3.43;100.00;-23717.66;5093947;28;20580;-72
2021/12/24 02:36:06;;;;;;;118.80;57.10;;;;;;;-3.42;100.00;-23717.94;5094256;28;20174;-77
2021/12/24 02:38:32;;;;;;;125.47;58.53;;;;;;;-3.55;100.00;-23714.34;5075899;28;20177;-74
2021/12/24 02:40:58;;;;;;;117.33;55.23;;;;;;;-3.31;100.00;-23721.09;5094093;28;20189;-74
2021/12/24 02:43:25;;;;;;;118.60;53.70;;;;;;;-3.33;100.00;-23720.53;5094078;28;20174;-79
2021/12/24 02:45:55;;;;;;;109.17;52.90;;;;;;;-3.91;100.00;-23704.13;5094025;28;20189;-75
2021/12/24 02:53:57;;;;;;;111.53;51.50;;;;;;;-2.83;100.00;-23734.91;5094251;28;20353;-73
2021/12/24 02:56:29;;;;;;;112.67;52.73;;;;;;;-3.31;100.00;-23721.09;5093872;28;20268;-74
2021/12/24 02:58:57;;;;;;;108.37;50.13;;;;;;;-3.46;100.00;-23716.94;5075628;28;20188;-74
2021/12/24 03:01:26;;;;;;;99.83;49.00;;;;;;;-3.43;100.00;-23717.66;5093697;28;20174;-79
2021/12/24 03:03:51;;;;;;;100.77;50.10;;;;;;;-3.58;100.00;-23713.63;5093850;28;20230;-75
2021/12/24 03:06:41;;;;;;;108.43;50.17;;;;;;;-3.52;100.00;-23715.06;5093579;28;20173;-75
2021/12/24 03:09:11;;;;;;;110.27;52.63;;;;;;;-3.47;100.00;-23716.50;5067711;28;20189;-76
2021/12/24 03:11:37;;;;;;;104.67;50.20;;;;;;;-3.51;100.00;-23715.34;5075239;28;20668;-71
2021/12/24 03:14:05;;;;;;;102.67;51.47;;;;;;;-4.06;100.00;-23699.81;5075134;28;20287;-79
2021/12/24 03:16:31;;;;;;;100.97;50.73;;;;;;;-4.71;100.00;-23681.22;5093367;28;20192;-78
2021/12/24 03:18:57;;;;;;;102.30;51.07;;;;;;;-3.72;100.00;-23709.59;5093523;28;20255;-78
2021/12/24 03:21:32;;;;;;;99.03;50.90;;;;;;;-3.87;100.00;-23705.13;5093435;28;20208;-76
2021/12/24 03:26:31;;;;;;;100.33;52.07;;;;;;;-3.77;100.00;-23708.00;5093512;28;20548;-76
2021/12/24 03:28:57;;;;;;;118.03;60.30;;;;;;;-3.80;100.00;-23707.31;5093158;28;20640;-72
2021/12/24 03:31:22;;;;;;;99.77;50.33;;;;;;;-3.92;100.00;-23703.84;5093180;28;20204;-76
2021/12/24 03:33:53;;;;;;;108.13;48.37;;;;;;;-4.41;100.00;-23689.72;5074515;28;20197;-78
2021/12/24 03:36:21;;;;;;;101.60;49.70;;;;;;;-4.23;100.00;-23695.06;5093050;28;20157;-74
2021/12/24 03:38:47;;;;;;;107.00;50.43;;;;;;;-3.75;100.00;-23708.59;5093260;28;20203;-75
2021/12/24 03:41:12;;;;;;;117.00;51.10;;;;;;;-4.18;100.00;-23696.34;5092477;28;20185;-78
2021/12/24 03:43:37;;;;;;;130.70;64.47;;;;;;;-3.93;100.00;-23703.41;5074620;28;20192;-73
2021/12/24 03:46:07;;;;;;;107.53;53.80;;;;;;;-3.82;100.00;-23706.56;5092688;28;20157;-79
2021/12/24 03:48:51;;;;;;;108.60;51.53;;;;;;;-4.08;100.00;-23699.25;5092582;28;20158;-77
2021/12/24 03:56:45;;;;;;;105.57;51.63;;;;;;;-4.09;100.00;-23699.09;5092602;28;20583;-71
2021/12/24 03:59:12;;;;;;;109.10;50.80;;;;;;;-4.18;100.00;-23696.50;5092777;28;20169;-78
2021/12/24 04:01:38;;;;;;;112.10;51.60;;;;;;;-4.39;100.00;-23690.44;5092017;28;20220;-76
2021/12/24 04:04:04;;;;;;;104.93;50.37;;;;;;;-3.96;100.00;-23702.53;5091583;28;20209;-74
2021/12/24 04:06:30;;;;;;;98.37;47.00;;;;;;;-4.50;100.00;-23687.44;5092487;28;20564;-72
2021/12/24 04:08:56;;;;;;;110.93;50.90;;;;;;;-4.59;100.00;-23684.84;5092077;28;20191;-75
2021/12/24 04:11:22;;;;;;;110.83;52.73;;;;;;;-4.34;100.00;-23691.75;5073831;28;20180;-74
2021/12/24 04:13:47;;;;;;;115.13;53.90;;;;;;;-4.61;100.00;-23684.13;5091968;28;20205;-77
2021/12/24 04:16:12;;;;;;;110.40;50.87;;;;;;;-4.31;100.00;-23692.63;5074701;28;20187;-80
2021/12/24 04:18:51;;;;;;;107.10;49.23;;;;;;;-4.38;100.00;-23690.59;5074104;28;20189;-79
2021/12/24 04:26:45;;;;;;;100.73;47.90;;;;;;;-4.22;100.00;-23695.22;5091787;28;20184;-76
2021/12/24 04:29:10;;;;;;;108.27;49.83;;;;;;;-4.70;100.00;-23681.66;5091438;28;20165;-75
2021/12/24 04:31:52;;;;;;;103.27;48.70;;;;;;;-4.47;100.00;-23688.28;5073631;28;20623;-73
2021/12/24 04:34:24;;;;;;;104.93;48.57;;;;;;;-4.34;100.00;-23691.75;5073447;28;20597;-71
2021/12/24 05:03:38;;;;;;;107.63;46.10;;;;;;;-3.92;100.00;-23703.84;5091666;28;20216;-78
2021/12/24 05:06:13;;;;;;;95.47;45.00;;;;;;;-4.25;100.00;-23694.47;5073400;28;20181;-76
2021/12/24 05:08:54;;;;;;;80.07;39.80;;;;;;;-3.98;100.00;-23702.13;5091741;28;20238;-74
2021/12/24 05:11:21;;;;;;;92.53;44.23;;;;;;;-3.79;100.00;-23707.44;5091867;28;20173;-77
2021/12/24 05:13:48;;;;;;;94.17;43.77;;;;;;;-3.96;100.00;-23702.53;5073217;28;20280;-74
2021/12/24 05:21:34;;;;;;;145.47;64.07;;;;;;;-4.53;100.00;-23686.56;5091649;28;20573;-73
2021/12/24 05:24:01;;;;;;;136.00;63.53;;;;;;;-4.26;100.00;-23694.19;5091575;28;20608;-76
2021/12/24 05:26:27;;;;;;;144.10;65.57;;;;;;;-4.67;100.00;-23682.41;4977854;28;20953;-75
2021/12/24 05:28:53;;;;;;;151.00;67.60;;;;;;;-4.13;100.00;-23697.81;5091327;28;20174;-71
2021/12/24 05:31:20;;;;;;;141.93;65.20;;;;;;;-4.65;100.00;-23683.09;5091235;28;20608;-77
2021/12/24 05:33:45;;;;;;;133.90;58.73;;;;;;;-4.09;100.00;-23698.94;5091743;28;20201;-77
2021/12/24 05:36:11;;;;;;;119.77;55.60;;;;;;;-4.24;100.00;-23694.63;5093946;28;20188;-73
2021/12/24 05:38:36;;;;;;;112.73;52.07;;;;;;;-4.34;100.00;-23691.91;5095740;28;20169;-75
2021/12/24 05:41:02;;;;;;;111.87;52.47;;;;;;;-4.10;100.00;-23698.81;5076818;28;20175;-74
2021/12/24 05:43:28;;;;;;;114.57;52.47;;;;;;;-3.91;100.00;-23704.00;5095531;28;20205;-73
2021/12/24 05:45:53;;;;;;;124.47;52.53;;;;;;;-4.41;100.00;-23689.72;5076721;28;20177;-76
2021/12/24 05:48:19;;;;;;;117.30;51.57;;;;;;;-4.34;100.00;-23691.91;5077075;28;20649;-75
2021/12/24 05:50:44;;;;;;;122.70;54.40;;;;;;;-3.88;100.00;-23704.84;5095115;28;20667;-78
2021/12/24 05:53:10;;;;;;;122.37;53.17;;;;;;;-3.95;100.00;-23702.97;5076644;28;20211;-75
2021/12/24 05:55:35;;;;;;;107.10;52.10;;;;;;;-4.05;100.00;-23700.25;5094715;28;20177;-78
2021/12/24 05:58:06;;;;;;;109.70;51.03;;;;;;;-3.90;100.00;-23704.41;5095165;28;20617;-74
2021/12/24 06:00:32;;;;;;;116.93;54.43;;;;;;;-4.35;100.00;-23691.47;5095227;28;20161;-78
2021/12/24 06:02:57;;;;;;;115.13;50.93;;;;;;;-3.78;100.00;-23707.88;5076797;28;20173;-76
2021/12/24 06:05:23;;;;;;;112.63;53.30;;;;;;;-4.14;100.00;-23697.50;5094800;28;20260;-76
2021/12/24 06:07:48;;;;;;;112.90;53.07;;;;;;;-4.13;100.00;-23697.94;5094887;28;20256;-79
2021/12/24 06:10:14;;;;;;;101.13;50.73;;;;;;;-3.88;100.00;-23705.00;5094642;28;20583;-77
2021/12/24 06:12:39;;;;;;;103.63;51.00;;;;;;;-3.92;100.00;-23703.84;5095367;28;20234;-79
2021/12/24 06:15:07;;;;;;;103.43;49.10;;;;;;;-4.37;100.00;-23691.03;5076552;28;20224;-71
2021/12/24 06:17:36;;;;;;;114.53;51.47;;;;;;;-3.75;100.00;-23708.75;5076478;28;20193;-79
2021/12/24 06:20:03;;;;;;;103.37;49.07;;;;;;;-3.80;100.00;-23707.31;5093889;28;20205;-77
2021/12/24 06:22:29;;;;;;;107.23;50.23;;;;;;;-3.77;100.00;-23708.16;5094413;28;20246;-75
2021/12/24 06:24:54;;;;;;;105.00;48.07;;;;;;;-3.83;100.00;-23706.44;5094445;28;20595;-73
2021/12/24 06:27:20;;;;;;;98.13;48.60;;;;;;;-4.04;100.00;-23700.38;5094426;28;20207;-72
2021/12/24 06:29:45;;;;;;;102.53;47.47;;;;;;;-3.47;100.00;-23716.50;5094641;28;20188;-75
2021/12/24 06:32:11;;;;;;;103.90;47.87;;;;;;;-3.77;100.00;-23708.16;5076177;28;20173;-76
2021/12/24 06:34:36;;;;;;;94.83;46.63;;;;;;;-3.60;100.00;-23712.91;5088019;28;21107;-82
2021/12/24 06:37:02;;;;;;;99.83;46.80;;;;;;;-3.46;100.00;-23716.94;5075935;28;20660;-78
2021/12/24 06:39:28;;;;;;;98.80;48.30;;;;;;;-3.66;100.00;-23711.31;5076869;28;20612;-79
2021/12/24 06:41:54;;;;;;;106.33;47.97;;;;;;;-3.83;100.00;-23706.44;5076037;28;20181;-79
2021/12/24 06:44:21;;;;;;;98.90;47.47;;;;;;;-3.45;100.00;-23717.09;5075864;28;20169;-80
2021/12/24 06:46:47;;;;;;;93.07;45.80;;;;;;;-3.37;100.00;-23719.38;5061905;28;20184;-81
2021/12/24 06:49:13;;;;;;;97.40;46.43;;;;;;;-3.29;100.00;-23721.69;5074015;28;20167;-78
2021/12/24 06:51:39;;;;;;;102.17;47.83;;;;;;;-3.35;100.00;-23720.09;5081207;28;20225;-77
2021/12/24 06:54:06;;;;;;;101.17;46.93;;;;;;;-2.78;100.00;-23736.22;5066312;28;20221;-78
2021/12/24 06:56:32;;;;;;;95.13;45.50;;;;;;;-3.16;100.00;-23725.56;5086807;28;20272;-77
2021/12/24 06:58:58;;;;;;;95.83;47.03;;;;;;;-2.58;100.00;-23741.81;5075336;28;20238;-81
2021/12/24 07:01:23;;;;;;;96.90;47.73;;;;;;;-2.34;100.00;-23748.84;5093908;28;20189;-80
2021/12/24 07:03:48;;;;;;;104.37;49.57;;;;;;;-2.23;100.00;-23751.88;5092635;28;20193;-80
2021/12/24 07:06:14;;;;;;;89.77;46.20;;;;;;;-2.41;100.00;-23746.69;5074574;28;20186;-80
2021/12/24 07:08:40;;;;;;;89.27;44.63;;;;;;;-2.07;100.00;-23756.31;5092872;28;20186;-77
2021/12/24 07:11:05;;;;;;;98.27;47.10;;;;;;;-1.72;100.00;-23766.22;5092776;28;20245;-79
2021/12/24 07:13:31;;;;;;;97.33;47.83;;;;;;;-1.50;100.00;-23772.53;5092865;28;20212;-81
2021/12/24 07:15:56;;;;;;;86.57;45.13;;;;;;;-1.33;100.00;-23777.56;5075198;28;20184;-80
2021/12/24 07:18:22;;;;;;;88.63;45.87;;;;;;;-1.25;100.00;-23779.72;5076631;28;20653;-78
2021/12/24 07:20:48;;;;;;;88.67;45.93;;;;;;;-1.18;100.00;-23781.72;5076851;28;20260;-78
2021/12/24 07:23:13;;;;;;;84.87;43.37;;;;;;;-0.76;100.00;-23793.47;5074496;28;20630;-78
2021/12/24 07:25:39;;;;;;;82.30;41.20;;;;;;;-0.84;100.00;-23791.31;5092655;28;20182;-75
2021/12/24 07:28:05;;;;;;;83.40;43.03;;;;;;;-0.98;100.00;-23787.44;5092291;28;20266;-81
2021/12/24 07:30:32;;;;;;;85.73;43.33;;;;;;;-0.46;100.00;-23802.06;5092132;28;20177;-74
2021/12/24 07:32:58;;;;;;;82.40;42.63;;;;;;;-0.28;100.00;-23807.09;5092023;28;20664;-80
2021/12/24 07:35:23;;;;;;;88.30;45.13;;;;;;;-0.23;100.00;-23808.66;5073905;28;20268;-77
2021/12/24 07:37:49;;;;;;;82.47;43.33;;;;;;;-0.47;100.00;-23801.78;5092790;28;20254;-75
2021/12/24 07:40:16;;;;;;;82.90;43.27;;;;;;;-0.55;100.00;-23799.63;5074127;28;20251;-75
2021/12/24 07:42:43;;;;;;;88.13;44.37;;;;;;;-0.51;100.00;-23800.63;5074651;28;20169;-80
2021/12/24 07:45:10;;;;;;;88.60;46.03;;;;;;;0.10;100.00;-23817.81;5076580;28;20725;-77
2021/12/24 07:47:40;;;;;;;86.73;46.13;;;;;;;-0.30;100.00;-23806.50;5091360;28;20221;-76
2021/12/24 07:53:02;;;;;;;71.70;37.93;;;;;;;-0.49;100.00;-23801.22;5050129;28;20197;-76
2021/12/24 07:55:28;;;;;;;72.77;38.27;;;;;;;-0.56;100.00;-23799.34;5078472;28;20242;-79
2021/12/24 07:57:54;;;;;;;73.17;38.17;;;;;;;-0.35;100.00;-23805.22;5090595;28;20608;-79
2021/12/24 08:00:23;;;;;;;73.50;37.37;;;;;;;-0.63;100.00;-23797.34;5091671;28;20182;-77
2021/12/24 08:02:49;;;;;;;68.67;37.20;;;;;;;-0.43;100.00;-23802.94;5074276;28;20698;-80
2021/12/24 08:05:19;;;;;;;68.67;35.63;;;;;;;0.00;100.00;-23815.09;5093187;28;20166;-75
2021/12/24 08:07:44;;;;;;;66.97;34.73;;;;;;;0.20;100.00;-23820.84;5066469;28;20208;-78
2021/12/24 08:10:09;;;;;;;61.53;32.70;;;;;;;-0.24;100.00;-23808.38;5091036;28;20632;-81
2021/12/24 08:12:35;;;;;;;59.43;33.30;;;;;;;0.00;100.00;-23815.09;5093999;28;20197;-81
2021/12/24 08:15:00;;;;;;;70.60;38.20;;;;;;;0.33;100.00;-23824.41;5078440;28;20204;-80
2021/12/24 08:17:26;;;;;;;77.07;40.07;;;;;;;0.60;100.00;-23832.00;5079077;28;20604;-77
2021/12/24 08:19:51;;;;;;;68.67;35.77;;;;;;;0.63;100.00;-23832.84;5090222;28;20616;-78
2021/12/24 08:22:17;;;;;;;79.50;42.57;;;;;;;0.38;100.00;-23825.84;5090718;28;20681;-80
2021/12/24 08:24:42;;;;;;;69.50;36.53;;;;;;;0.23;100.00;-23821.69;5091429;28;20266;-81
2021/12/24 08:27:08;;;;;;;69.17;34.17;;;;;;;-0.28;100.00;-23807.09;5091046;28;20225;-76
2021/12/24 08:29:35;;;;;;;65.57;33.93;;;;;;;-0.31;100.00;-23806.22;5089457;28;20209;-78
2021/12/24 08:32:03;;;;;;;72.00;33.73;;;;;;;0.51;100.00;-23829.56;5088531;28;21870;-77
2021/12/24 08:34:29;;;;;;;67.60;34.00;;;;;;;0.58;100.00;-23831.56;5090056;28;20239;-77
2021/12/24 08:36:54;;;;;;;59.33;32.23;;;;;;;0.40;100.00;-23826.41;5092847;28;20226;-79
2021/12/24 08:39:21;;;;;;;61.63;33.97;;;;;;;0.50;100.00;-23829.28;5090988;28;20176;-78
2021/12/24 08:41:52;;;;;;;56.27;31.03;;;;;;;0.76;100.00;-23836.72;5090991;28;20180;-80
2021/12/24 08:44:18;;;;;;;53.00;28.83;;;;;;;1.58;100.00;-23859.88;5076102;28;20587;-76
2021/12/24 08:46:44;;;;;;;45.47;25.83;;;;;;;1.87;100.00;-23868.03;5090620;28;20180;-75
2021/12/24 08:49:09;;;;;;;48.80;25.60;;;;;;;1.94;100.00;-23869.88;5078117;28;20222;-78
2021/12/24 08:51:35;;;;;;;51.57;27.90;;;;;;;1.98;100.00;-23871.03;5075605;28;20730;-79
2021/12/24 08:54:00;;;;;;;49.03;28.57;;;;;;;1.67;100.00;-23862.31;5089427;28;20277;-76
2021/12/24 08:56:26;;;;;;;50.07;28.53;;;;;;;2.15;100.00;-23875.88;5079006;28;20193;-77
2021/12/24 08:58:51;;;;;;;58.77;30.43;;;;;;;2.14;100.00;-23875.59;5087949;28;20276;-78
2021/12/24 09:01:17;;;;;;;56.40;28.70;;;;;;;2.26;100.00;-23879.03;5089663;28;20234;-78
2021/12/24 09:03:42;;;;;;;53.23;29.10;;;;;;;2.27;100.00;-23879.16;5089751;28;20178;-77
2021/12/24 09:06:08;;;;;;;48.00;26.57;;;;;;;2.79;100.00;-23893.88;5073938;28;20654;-78
2021/12/24 09:08:35;;;;;;;51.70;27.73;;;;;;;3.09;100.00;-23902.56;5085411;28;20660;-77
2021/12/24 09:11:03;;;;;;;50.93;28.67;;;;;;;3.01;100.00;-23900.28;5092374;28;20260;-77
2021/12/24 09:13:30;;;;;;;51.87;28.70;;;;;;;2.68;100.00;-23891.00;5083848;28;20754;-75
2021/12/24 09:15:56;;;;;;;56.63;29.57;;;;;;;2.84;100.00;-23895.28;5082855;28;20181;-78
2021/12/24 09:18:21;;;;;;;49.43;28.60;;;;;;;3.34;99.92;-23909.41;5093420;28;20188;-78
2021/12/24 09:20:47;;;;;;;48.40;27.40;;;;;;;3.15;100.00;-23904.00;5092589;28;20169;-76
2021/12/24 09:23:13;;;;;;;49.43;27.63;;;;;;;3.55;98.97;-23915.41;5094570;28;20229;-78
2021/12/24 09:25:40;;;;;;;47.90;26.50;;;;;;;3.72;97.45;-23920.09;5094676;28;20220;-80
2021/12/24 09:28:06;;;;;;;51.90;27.97;;;;;;;3.69;97.89;-23919.25;5095532;28;20196;-78
2021/12/24 09:30:32;;;;;;;56.40;28.60;;;;;;;3.91;97.00;-23925.53;5083822;28;20195;-81
2021/12/24 09:32:58;;;;;;;58.20;30.60;;;;;;;4.49;94.78;-23941.75;5083367;28;20679;-77
2021/12/24 09:35:25;;;;;;;48.80;26.07;;;;;;;4.59;92.78;-23944.59;5082446;28;20211;-77
2021/12/24 09:37:51;;;;;;;46.03;27.00;;;;;;;4.47;90.97;-23941.31;5094423;28;20188;-76
2021/12/24 09:40:18;;;;;;;48.17;25.47;;;;;;;4.69;91.10;-23947.44;5093829;28;20221;-57
2021/12/24 09:42:45;;;;;;;45.93;26.07;;;;;;;4.80;91.92;-23950.56;5092821;28;20212;-58
2021/12/24 09:45:11;;;;;;;46.37;25.87;;;;;;;4.98;92.60;-23955.56;5093262;28;20204;-61
2021/12/24 09:47:37;;;;;;;43.77;25.93;;;;;;;4.61;88.81;-23945.31;5091126;28;20205;-61
2021/12/24 09:50:04;;;;;;;47.17;26.50;;;;;;;4.76;90.01;-23949.44;5092487;28;20275;-57
2021/12/24 09:52:31;;;;;;;45.17;26.87;;;;;;;4.95;90.04;-23954.84;5092989;28;20228;-57
2021/12/24 09:54:57;;;;;;;50.30;26.30;;;;;;;4.75;88.76;-23949.31;5082378;28;20209;-58
2021/12/24 09:57:22;;;;;;;48.93;27.87;;;;;;;5.09;89.19;-23958.69;5092917;28;20192;-57
2021/12/24 09:59:48;;;;;;;48.37;29.00;;;;;;;4.70;88.63;-23947.72;5094508;28;20199;-58
2021/12/24 10:02:19;;;;;;;63.40;27.50;;;;;;;4.60;85.59;-23944.88;5094378;28;20276;-57
2021/12/24 10:04:46;;;;;;;50.83;28.40;;;;;;;4.81;90.34;-23950.84;5094182;28;20188;-58
2021/12/24 10:07:16;;;;;;;48.63;28.57;;;;;;;4.75;91.31;-23949.16;5095213;28;20196;-57
2021/12/24 10:09:46;;;;;;;52.53;28.03;;;;;;;4.55;88.40;-23943.47;5093834;28;20184;-59
2021/12/24 10:12:18;;;;;;;53.53;29.30;;;;;;;4.49;87.77;-23941.75;5093698;28;20525;-55
2021/12/24 10:14:49;;;;;;;59.93;31.20;;;;;;;4.10;85.61;-23930.78;5091400;28;20205;-52
2021/12/24 10:17:23;;;;;;;66.47;31.47;;;;;;;4.49;85.81;-23941.75;5094154;28;20185;-52
2021/12/24 10:19:53;;;;;;;56.87;33.47;;;;;;;4.32;89.03;-23937.06;5094077;28;20173;-63
2021/12/24 10:22:20;;;;;;;69.30;36.90;;;;;;;4.59;85.62;-23944.59;5090522;28;20181;-69
2021/12/24 10:25:10;;;;;;;55.47;33.37;;;;;;;4.08;85.98;-23930.22;5092385;28;20238;-69
2021/12/24 10:27:38;;;;;;;59.90;33.40;;;;;;;4.58;85.49;-23944.47;5089104;28;20624;-70
2021/12/24 10:30:15;;;;;;;54.23;28.80;;;;;;;4.71;88.17;-23948.03;5092184;28;20677;-69
2021/12/24 10:32:41;;;;;;;58.97;32.73;;;;;;;4.36;89.92;-23938.34;5090669;28;20644;-69
2021/12/24 10:35:29;;;;;;;60.73;34.63;;;;;;;4.42;90.30;-23939.91;5092705;28;20212;-68
2021/12/24 10:38:30;;;;;;;68.63;35.80;;;;;;;4.68;89.94;-23947.31;5093062;28;20178;-71
2021/12/24 10:41:01;;;;;;;67.30;35.87;;;;;;;4.25;90.50;-23935.06;5016538;28;20335;-70
2021/12/24 10:43:33;;;;;;;65.37;35.67;;;;;;;5.05;88.90;-23957.69;5083041;28;20300;-69
2021/12/24 10:46:11;;;;;;;65.57;37.23;;;;;;;4.49;90.37;-23941.91;5092419;28;20247;-69
2021/12/24 10:49:01;;;;;;;64.87;35.30;;;;;;;4.93;91.18;-23954.13;5089908;28;20192;-69
2021/12/24 10:54:11;;;;;;;80.67;43.00;;;;;;;5.09;87.38;-23958.81;5091992;28;20216;-69
2021/12/24 10:56:36;;;;;;;82.80;45.33;;;;;;;5.22;85.70;-23962.53;5091476;28;20185;-69
2021/12/24 10:59:02;;;;;;;91.13;46.07;;;;;;;5.09;85.72;-23958.81;5091845;28;20181;-69
2021/12/24 11:01:27;;;;;;;87.87;47.23;;;;;;;5.59;85.18;-23972.75;5091295;28;20218;-69
2021/12/24 11:03:53;;;;;;;98.57;51.10;;;;;;;4.99;85.31;-23956.00;5089721;28;20177;-69
2021/12/24 11:06:21;;;;;;;105.73;52.13;;;;;;;4.39;87.25;-23939.19;5091256;28;20258;-69
2021/12/24 11:08:54;;;;;;;100.23;50.60;;;;;;;4.85;87.32;-23952.00;5090064;28;20188;-69
2021/12/24 11:11:19;;;;;;;95.47;50.17;;;;;;;4.48;86.83;-23941.63;5090047;28;20188;-68
2021/12/24 11:13:47;;;;;;;91.47;50.47;;;;;;;4.34;88.34;-23937.63;5078896;28;20197;-69
2021/12/24 11:16:18;;;;;;;95.57;50.33;;;;;;;4.69;88.15;-23947.59;5090216;28;20235;-69
2021/12/24 11:18:46;;;;;;;111.60;53.03;;;;;;;4.57;88.31;-23944.19;5095951;28;20242;-69
2021/12/24 11:21:21;;;;;;;103.97;53.97;;;;;;;4.78;86.99;-23950.16;5090147;28;20546;-70
2021/12/24 11:23:48;;;;;;;96.50;54.13;;;;;;;4.67;86.15;-23947.03;5085265;28;20195;-70
2021/12/24 11:26:25;;;;;;;104.47;54.73;;;;;;;4.69;85.98;-23947.44;5078392;28;20221;-69
2021/12/24 11:28:50;;;;;;;102.73;54.73;;;;;;;5.19;85.27;-23961.66;5092705;28;20604;-69
2021/12/24 11:31:30;;;;;;;100.93;54.93;;;;;;;5.51;84.61;-23970.63;5090866;28;20229;-70
2021/12/24 11:33:58;;;;;;;103.23;56.53;;;;;;;5.17;82.89;-23960.97;5089727;28;20197;-69
2021/12/24 11:36:25;;;;;;;116.80;56.67;;;;;;;5.64;82.13;-23974.19;5091612;28;20253;-69
2021/12/24 11:38:56;;;;;;;106.83;57.00;;;;;;;5.74;81.84;-23977.03;5089348;28;20200;-69
2021/12/24 11:41:26;;;;;;;113.07;58.00;;;;;;;5.82;81.22;-23979.16;5088564;28;20173;-69
2021/12/24 11:43:54;;;;;;;106.43;58.50;;;;;;;5.84;81.35;-23979.88;5090308;28;20188;-69
2021/12/24 11:46:22;;;;;;;114.27;58.00;;;;;;;5.98;80.48;-23983.84;5090654;28;20663;-68
2021/12/24 11:48:50;;;;;;;107.00;55.60;;;;;;;6.14;79.55;-23988.41;5090010;28;20644;-69
2021/12/24 11:51:25;;;;;;;100.77;51.80;;;;;;;5.48;78.56;-23969.78;5090512;28;20277;-69
2021/12/24 11:53:53;;;;;;;91.90;51.43;;;;;;;5.98;78.15;-23983.72;5090169;28;20675;-69
2021/12/24 11:56:20;;;;;;;95.50;49.47;;;;;;;5.86;77.72;-23980.44;5090030;28;20166;-69
2021/12/24 11:58:50;;;;;;;90.23;51.03;;;;;;;6.36;78.38;-23994.34;5090723;28;20230;-69
2021/12/24 12:01:18;;;;;;;85.00;45.37;;;;;;;6.42;76.27;-23996.22;5089436;28;20321;-69
2021/12/24 12:03:55;;;;;;;81.27;44.80;;;;;;;6.54;75.06;-23999.47;5090041;28;20669;-70
2021/12/24 12:06:20;;;;;;;81.40;39.77;;;;;;;6.72;74.38;-24004.44;5086196;28;20181;-70
2021/12/24 12:08:47;;;;;;;69.20;39.17;;;;;;;6.68;73.76;-24003.44;5089999;28;20200;-69
2021/12/24 12:11:34;;;;;;;68.83;36.87;;;;;;;6.60;73.41;-24001.31;5090358;28;20173;-69
2021/12/24 12:14:03;;;;;;;61.03;34.00;;;;;;;6.81;73.92;-24007.13;5089984;28;20739;-69
2021/12/24 12:16:48;;;;;;;58.80;30.87;;;;;;;6.79;72.65;-24006.56;5090061;28;20216;-69
2021/12/24 12:19:27;;;;;;;55.57;28.63;;;;;;;6.65;73.21;-24002.59;5090771;28;20560;-70
2021/12/24 12:25:00;;;;;;;50.70;26.10;;;;;;;6.64;72.49;-24002.44;5088964;28;20235;-69
2021/12/24 12:27:38;;;;;;;52.57;26.37;;;;;;;6.75;72.28;-24005.28;5090071;28;20602;-71
2021/12/24 12:30:36;;;;;;;44.80;25.13;;;;;;;6.83;72.56;-24007.56;5074728;28;20582;-69
2021/12/24 12:33:29;;;;;;;46.77;25.23;;;;;;;6.93;72.84;-24010.53;5089466;28;20177;-69
2021/12/24 12:35:57;;;;;;;42.97;24.23;;;;;;;6.44;72.53;-23996.63;5088462;28;20184;-69
2021/12/24 12:38:23;;;;;;;52.20;25.43;;;;;;;6.69;72.41;-24003.72;5089782;28;20637;-70
2021/12/24 12:40:48;;;;;;;56.80;26.80;;;;;;;6.07;73.61;-23986.41;5090196;28;20180;-68
2021/12/24 12:43:14;;;;;;;50.00;25.10;;;;;;;6.49;73.88;-23998.19;5088953;28;20178;-69
2021/12/24 12:45:41;;;;;;;43.60;26.77;;;;;;;6.41;74.46;-23995.78;5090134;28;20173;-69
2021/12/24 12:48:12;;;;;;;55.27;26.47;;;;;;;6.28;75.09;-23992.09;5089373;28;20216;-69
2021/12/24 12:50:49;;;;;;;46.23;26.30;;;;;;;6.45;74.68;-23996.91;5087985;28;20231;-69
2021/12/24 12:53:30;;;;;;;68.33;33.67;;;;;;;5.82;75.20;-23979.31;5087298;28;20184;-70
2021/12/24 12:56:22;;;;;;;73.83;39.50;;;;;;;6.21;74.59;-23990.25;5090092;28;20620;-71